This is the latest recevied weather packets stored in our database for station/object PE1RXF-13. If no packets are shown the sender has not sent any weather packets the latest 10 day(s).
| Time | Temp. | Humidity | Pressure | Rain* | Wind** | Luminosity | Snow |
|---|---|---|---|---|---|---|---|
| 1777617855 | 15° C | 40% | 1027.7 hPa | 0 mm | - | 96 W/m² | - |
| 1777616055 | 13.89° C | 44% | 1027.8 hPa | 0 mm | - | 68 W/m² | - |
| 1777612455 | 7.22° C | 82% | 1027.6 hPa | 0 mm | - | 11 W/m² | - |
| 1777610654 | 5° C | 99% | 1027.6 hPa | 0 mm | - | 7 W/m² | - |
| 1777608856 | 5° C | 99% | 1027.6 hPa | 0 mm | - | 2 W/m² | - |
| 1777608855 | 5° C | 99% | 1027.6 hPa | 0 mm | - | 2 W/m² | - |
| 1777605254 | 5.56° C | 94% | 1027.5 hPa | 0 mm | - | 0 W/m² | - |
| 1777603455 | 5.56° C | 96% | 1027.6 hPa | 0 mm | - | 0 W/m² | - |
| 1777601656 | 6.67° C | 78% | 1027.5 hPa | 0 mm | - | 0 W/m² | - |
| 1777601655 | 6.67° C | 78% | 1027.5 hPa | 0 mm | - | 0 W/m² | - |
| 1777599855 | 7.22° C | 75% | 1027.5 hPa | 0 mm | - | 0 W/m² | - |
| 1777598054 | 8.33° C | 64% | 1027.5 hPa | 0 mm | - | 0 W/m² | - |
| 1777594456 | 10° C | 52% | 1027.7 hPa | 0 mm | - | 0 W/m² | - |
| 1777594455 | 10° C | 52% | 1027.7 hPa | 0 mm | - | 0 W/m² | - |
| 1777592655 | 10.56° C | 49% | 1027.8 hPa | 0 mm | - | 0 W/m² | - |
| 1777590856 | 10.56° C | 49% | 1027.7 hPa | 0 mm | - | 0 W/m² | - |
| 1777589054 | 11.11° C | 46% | 1027.8 hPa | 0 mm | - | 0 W/m² | - |
| 1777587256 | 11.67° C | 46% | 1027.9 hPa | 0 mm | - | 0 W/m² | - |
| 1777585454 | 12.22° C | 45% | 1027.8 hPa | 0 mm | - | 0 W/m² | - |
| 1777583654 | 12.78° C | 44% | 1027.9 hPa | 0 mm | - | 0 W/m² | - |
| 1777581854 | 11.11° C | 52% | 1028 hPa | 0 mm | - | 0 W/m² | - |
| 1777580054 | 12.22° C | 46% | 1028.1 hPa | 0 mm | - | 0 W/m² | - |
| 1777578254 | 11.67° C | 47% | 1028 hPa | 0 mm | - | 0 W/m² | - |
| 1777574655 | 15.56° C | 35% | 1027.6 hPa | 0 mm | - | 5 W/m² | - |
| 1777572855 | 17.22° C | 32% | 1027.4 hPa | 0 mm | - | 10 W/m² | - |
* Rain latest hour (hover to see other rain measurements)
** Current wind speed in m/s (hover to see current wind gust speed)